Nizhneudinsk, Russia
Current Conditions -  °F | °C
As of 10:00 AM on Monday 22 Dec 2014 (Local Time) from UIBB Reporting Station
Broken Clouds Broken Clouds  
Wind Chill: -2°   Ceiling: 20000
Heat Index: 12°   Visibility: 6mi
Dew Point:   Wind: 11mph
Humidity: 79%   Direction: 230°SW
Pressure: 30.03"   Gusts: NA
Location:  54.9°N, 99.03°E
Report Text: UIBB 220200Z 23005MPS 9999 FEW020CB BKN200 M11/M14 Q1017 NOSIGRMK QFE720/0960 30820540
Loading
Personal Weather Stations






























Interactive Weather Map New forecast layout! Learn more

10-Day Weather Forecast

Advertisements
Track Severe Weather on mobile